createdAt,value
2019-03-24T00:00:57.675Z,5.00
2019-03-24T00:03:28.650Z,5.00
2019-03-24T00:05:59.378Z,5.00
2019-03-24T00:08:30.283Z,5.00
2019-03-24T00:11:02.454Z,5.00
2019-03-24T00:13:33.423Z,5.00
2019-03-24T00:16:04.362Z,4.90
2019-03-24T00:18:35.231Z,5.00
2019-03-24T00:21:05.995Z,4.90
2019-03-24T00:23:36.666Z,4.80
2019-03-24T00:26:07.432Z,4.80
2019-03-24T00:28:38.304Z,4.80
2019-03-24T00:31:10.143Z,4.70
2019-03-24T00:33:40.998Z,4.70
2019-03-24T00:36:11.917Z,4.70
2019-03-24T00:38:42.699Z,4.60
2019-03-24T00:41:13.635Z,4.40
2019-03-24T00:43:44.575Z,4.30
2019-03-24T00:46:15.387Z,4.30
2019-03-24T00:48:46.140Z,4.40
2019-03-24T00:51:18.203Z,4.50
2019-03-24T00:53:49.120Z,4.60
2019-03-24T00:56:19.939Z,4.50
2019-03-24T00:58:50.672Z,4.40
2019-03-24T01:01:21.340Z,4.40
2019-03-24T01:03:52.119Z,4.30
2019-03-24T01:06:22.942Z,4.20
2019-03-24T01:08:53.829Z,4.20
2019-03-24T01:11:24.643Z,4.30
2019-03-24T01:13:55.486Z,4.40
2019-03-24T01:16:26.325Z,4.30
2019-03-24T01:18:57.287Z,4.30
2019-03-24T01:21:29.281Z,4.30
2019-03-24T01:24:00.053Z,4.20
2019-03-24T01:26:30.919Z,4.30
2019-03-24T01:29:01.616Z,4.00
2019-03-24T01:31:34.750Z,4.10
2019-03-24T01:34:05.512Z,4.00
2019-03-24T01:36:36.275Z,3.80
2019-03-24T01:39:07.953Z,3.60
2019-03-24T01:41:39.784Z,3.30
2019-03-24T01:44:10.655Z,3.20
2019-03-24T01:46:41.260Z,2.90
2019-03-24T01:49:12.108Z,3.10
2019-03-24T01:51:43.102Z,3.20
2019-03-24T01:54:13.959Z,3.40
2019-03-24T01:56:44.704Z,3.60
2019-03-24T01:59:15.527Z,3.30
2019-03-24T02:01:47.529Z,3.30
2019-03-24T02:04:18.306Z,3.30
2019-03-24T02:06:49.123Z,3.30
2019-03-24T02:09:20.086Z,3.50
2019-03-24T02:11:50.959Z,3.40
2019-03-24T02:14:21.906Z,3.30
2019-03-24T02:16:52.754Z,3.40
2019-03-24T02:19:23.483Z,3.40
2019-03-24T02:21:54.387Z,3.30
2019-03-24T02:24:25.372Z,3.10
2019-03-24T02:26:56.154Z,3.20
2019-03-24T02:29:26.983Z,2.90
2019-03-24T02:31:57.733Z,3.00
2019-03-24T02:34:28.583Z,2.90
2019-03-24T02:37:00.924Z,2.70
2019-03-24T02:39:31.697Z,2.70
2019-03-24T02:44:32.887Z,2.50
2019-03-24T02:47:03.753Z,2.40
2019-03-24T02:49:34.497Z,2.50
2019-03-24T02:52:05.315Z,2.50
2019-03-24T02:54:36.127Z,2.70
2019-03-24T02:57:08.253Z,2.80
2019-03-24T02:59:39.191Z,2.70
2019-03-24T03:02:09.996Z,2.80
2019-03-24T03:04:40.917Z,2.50
2019-03-24T03:07:13.128Z,2.40
2019-03-24T03:09:43.832Z,2.40
2019-03-24T03:12:15.816Z,2.30
2019-03-24T03:14:47.551Z,2.20
2019-03-24T03:17:18.376Z,2.00
2019-03-24T03:19:49.482Z,1.90
2019-03-24T03:22:20.303Z,1.80
2019-03-24T03:24:50.986Z,1.60
2019-03-24T03:27:21.727Z,1.60
2019-03-24T03:29:52.591Z,1.60
2019-03-24T03:32:23.389Z,1.60
2019-03-24T03:37:25.656Z,1.50
2019-03-24T03:39:58.087Z,1.60
2019-03-24T03:42:29.293Z,1.90
2019-03-24T03:45:01.397Z,2.00
2019-03-24T03:47:32.119Z,2.10
2019-03-24T03:50:03.021Z,2.20
2019-03-24T03:52:33.790Z,2.20
2019-03-24T03:55:06.797Z,2.20
2019-03-24T03:57:37.713Z,2.20
2019-03-24T04:00:08.684Z,2.30
2019-03-24T04:02:39.589Z,2.30
2019-03-24T04:05:11.556Z,2.40
2019-03-24T04:07:42.387Z,2.60
2019-03-24T04:10:13.134Z,2.70
2019-03-24T04:12:44.103Z,2.80
2019-03-24T04:15:14.863Z,2.70
2019-03-24T04:17:45.525Z,2.70
2019-03-24T04:20:16.317Z,2.60
2019-03-24T04:22:47.081Z,2.70
2019-03-24T04:25:17.823Z,2.60
2019-03-24T04:27:48.593Z,2.60
2019-03-24T04:30:20.591Z,2.50
2019-03-24T04:32:51.347Z,2.50
2019-03-24T04:35:22.149Z,2.50
2019-03-24T04:37:53.279Z,2.60
2019-03-24T04:40:25.112Z,2.60
2019-03-24T04:42:56.029Z,2.50
2019-03-24T04:45:26.856Z,2.40
2019-03-24T04:47:57.791Z,2.30
2019-03-24T04:50:29.854Z,2.40
2019-03-24T04:53:00.792Z,2.30
2019-03-24T04:55:31.629Z,2.30
2019-03-24T04:58:02.429Z,2.40
2019-03-24T05:00:37.965Z,2.20
2019-03-24T05:03:08.869Z,2.20
2019-03-24T05:05:40.229Z,2.10
2019-03-24T05:08:12.936Z,2.00
2019-03-24T05:10:44.928Z,1.90
2019-03-24T05:13:15.729Z,1.90
2019-03-24T05:15:46.568Z,1.80
2019-03-24T05:18:17.349Z,1.80
2019-03-24T05:20:48.011Z,1.80
2019-03-24T05:23:18.764Z,1.80
2019-03-24T05:25:49.495Z,1.80
2019-03-24T05:28:20.169Z,1.90
2019-03-24T05:30:50.963Z,1.90
2019-03-24T05:33:22.892Z,1.90
2019-03-24T05:35:53.757Z,2.10
2019-03-24T05:38:24.516Z,2.30
2019-03-24T05:40:55.327Z,2.40
2019-03-24T05:43:26.112Z,2.50
2019-03-24T05:45:56.965Z,2.50
2019-03-24T05:48:27.710Z,2.40
2019-03-24T05:50:59.647Z,2.50
2019-03-24T05:53:30.521Z,2.60
2019-03-24T05:56:01.396Z,2.50
2019-03-24T05:58:32.129Z,2.60
2019-03-24T06:01:03.033Z,2.80
2019-03-24T06:03:33.865Z,2.80
2019-03-24T06:06:04.670Z,2.90
2019-03-24T06:08:35.903Z,3.10
2019-03-24T06:11:08.060Z,3.30
2019-03-24T06:13:38.838Z,3.40
2019-03-24T06:16:09.779Z,3.50
2019-03-24T06:18:40.619Z,3.80
2019-03-24T06:21:11.359Z,4.10
2019-03-24T06:23:42.269Z,4.20
2019-03-24T06:26:12.989Z,4.40
2019-03-24T06:31:14.997Z,4.70
2019-03-24T06:33:45.762Z,4.80
2019-03-24T06:36:16.501Z,4.90
2019-03-24T06:38:47.359Z,5.00
2019-03-24T06:41:19.262Z,5.20
2019-03-24T06:43:50.249Z,5.40
2019-03-24T06:46:21.858Z,5.60
2019-03-24T06:48:52.623Z,6.10
2019-03-24T06:51:26.081Z,6.20
2019-03-24T06:53:57.015Z,6.70
2019-03-24T06:56:27.747Z,6.90
2019-03-24T06:58:58.490Z,7.10
2019-03-24T07:01:29.315Z,7.30
2019-03-24T07:04:00.083Z,8.00
2019-03-24T07:06:30.924Z,8.60
2019-03-24T07:09:01.855Z,9.00
2019-03-24T07:11:33.720Z,9.90
2019-03-24T07:14:04.652Z,10.50
2019-03-24T07:16:36.921Z,9.90
2019-03-24T07:19:07.763Z,9.40
2019-03-24T07:21:38.591Z,9.40
2019-03-24T07:24:09.468Z,9.40
2019-03-24T07:26:40.156Z,9.70
2019-03-24T07:29:11.140Z,11.10
2019-03-24T07:31:41.932Z,12.90
2019-03-24T07:34:13.079Z,12.90
2019-03-24T07:36:44.282Z,14.60
2019-03-24T07:39:15.104Z,15.90
2019-03-24T07:41:46.483Z,17.30
2019-03-24T07:44:17.407Z,17.30
2019-03-24T07:46:48.388Z,15.30
2019-03-24T07:49:19.122Z,14.70
2019-03-24T07:51:51.023Z,15.90
2019-03-24T07:54:22.983Z,15.10
2019-03-24T07:56:55.508Z,16.40
2019-03-24T07:59:26.143Z,17.80
2019-03-24T08:01:56.941Z,16.10
2019-03-24T08:04:27.840Z,15.00
2019-03-24T08:06:59.399Z,14.60
2019-03-24T08:09:30.260Z,14.90
2019-03-24T08:12:01.311Z,14.80
2019-03-24T08:14:32.151Z,14.30
2019-03-24T08:17:04.072Z,14.60
2019-03-24T08:19:34.928Z,14.40
2019-03-24T08:22:06.036Z,14.10
2019-03-24T08:24:36.999Z,14.00
2019-03-24T08:27:09.315Z,15.30
2019-03-24T08:29:40.150Z,16.70
2019-03-24T08:32:11.088Z,16.10
2019-03-24T08:34:41.859Z,15.90
2019-03-24T08:37:12.650Z,14.90
2019-03-24T08:39:43.487Z,13.90
2019-03-24T08:42:14.327Z,14.50
2019-03-24T08:44:46.429Z,14.70
2019-03-24T08:47:17.325Z,15.30
2019-03-24T08:49:48.199Z,15.30
2019-03-24T08:52:18.904Z,15.30
2019-03-24T08:54:50.934Z,14.80
2019-03-24T08:57:21.989Z,13.80
2019-03-24T08:59:52.730Z,14.20
2019-03-24T09:02:23.904Z,14.60
2019-03-24T09:04:55.847Z,15.10
2019-03-24T09:07:26.615Z,16.10
2019-03-24T09:09:57.477Z,15.20
2019-03-24T09:12:28.246Z,14.90
2019-03-24T09:15:00.337Z,14.70
2019-03-24T09:17:31.054Z,15.00
2019-03-24T09:20:02.282Z,14.90
2019-03-24T09:22:33.732Z,18.10
2019-03-24T09:25:07.743Z,20.00
2019-03-24T09:27:38.576Z,21.40
2019-03-24T09:30:19.346Z,21.00
2019-03-24T09:32:50.180Z,22.00
2019-03-24T09:35:22.559Z,20.20
2019-03-24T09:37:53.453Z,21.60
2019-03-24T09:40:32.032Z,22.10
2019-03-24T09:43:03.658Z,22.60
2019-03-24T09:45:35.766Z,22.70
2019-03-24T09:48:06.729Z,23.30
2019-03-24T09:50:37.580Z,24.00
2019-03-24T09:53:08.460Z,23.70
2019-03-24T09:55:39.240Z,24.60
2019-03-24T09:58:10.010Z,25.70
2019-03-24T10:00:40.837Z,24.40
2019-03-24T10:03:11.690Z,22.00
2019-03-24T10:05:42.508Z,23.80
2019-03-24T10:08:13.497Z,25.40
2019-03-24T10:10:44.384Z,25.20
2019-03-24T10:13:15.251Z,24.30
2019-03-24T10:15:46.155Z,23.40
2019-03-24T10:18:17.008Z,22.40
2019-03-24T10:20:47.791Z,24.60
2019-03-24T10:23:19.254Z,24.40
2019-03-24T10:25:51.138Z,24.00
2019-03-24T10:28:21.947Z,22.60
2019-03-24T10:30:52.667Z,23.10
2019-03-24T10:33:24.539Z,24.90
2019-03-24T10:35:55.284Z,24.20
2019-03-24T10:38:26.130Z,24.90
2019-03-24T10:40:56.882Z,25.20
2019-03-24T10:43:27.696Z,23.70
2019-03-24T10:46:00.075Z,23.30
2019-03-24T10:48:33.911Z,22.80
2019-03-24T10:51:04.681Z,24.50
2019-03-24T10:53:35.547Z,24.50
2019-03-24T10:56:07.409Z,22.00
2019-03-24T10:58:38.285Z,21.40
2019-03-24T11:01:09.177Z,22.60
2019-03-24T11:03:40.020Z,23.40
2019-03-24T11:06:10.860Z,24.40
2019-03-24T11:08:41.603Z,24.80
2019-03-24T11:11:12.303Z,24.00
2019-03-24T11:13:43.048Z,21.20
2019-03-24T11:16:14.835Z,20.10
2019-03-24T11:18:45.608Z,19.70
2019-03-24T11:21:16.398Z,19.50
2019-03-24T11:23:47.495Z,19.60
2019-03-24T11:26:18.557Z,19.50
2019-03-24T11:28:49.811Z,20.30
2019-03-24T11:31:20.637Z,19.90
2019-03-24T11:33:51.449Z,19.90
2019-03-24T11:36:23.408Z,20.80
2019-03-24T11:38:55.200Z,19.90
2019-03-24T11:41:26.012Z,18.40
2019-03-24T11:43:57.483Z,18.30
2019-03-24T11:46:29.915Z,18.30
2019-03-24T11:49:02.261Z,18.00
2019-03-24T11:51:33.463Z,18.30
2019-03-24T11:54:04.716Z,17.90
2019-03-24T11:56:36.863Z,17.60
2019-03-24T11:59:08.519Z,16.70
2019-03-24T12:01:39.980Z,16.20
2019-03-24T12:04:12.316Z,16.70
2019-03-24T12:06:45.234Z,16.60
2019-03-24T12:09:17.914Z,17.70
2019-03-24T12:11:49.876Z,17.30
2019-03-24T12:14:21.845Z,17.10
2019-03-24T12:16:56.274Z,16.60
2019-03-24T12:19:27.915Z,16.90
2019-03-24T12:21:59.713Z,16.80
2019-03-24T12:24:30.721Z,16.80
2019-03-24T12:27:02.129Z,17.70
2019-03-24T12:29:33.167Z,18.60
2019-03-24T12:32:04.247Z,20.20
2019-03-24T12:34:35.687Z,20.40
2019-03-24T12:37:07.148Z,20.70
2019-03-24T12:39:38.324Z,19.50
2019-03-24T12:42:09.628Z,21.70
2019-03-24T12:44:45.172Z,20.10
2019-03-24T12:47:17.652Z,18.70
2019-03-24T12:49:48.709Z,18.50
2019-03-24T12:52:19.906Z,17.80
2019-03-24T12:54:52.761Z,17.90
2019-03-24T12:57:25.529Z,18.00
2019-03-24T12:59:57.189Z,17.50
2019-03-24T13:02:29.743Z,16.80
2019-03-24T13:05:03.218Z,16.60
2019-03-24T13:07:34.279Z,16.00
2019-03-24T13:10:06.851Z,16.20
2019-03-24T13:12:37.782Z,16.00
2019-03-24T13:15:10.019Z,16.00
2019-03-24T13:17:40.784Z,15.10
2019-03-24T13:20:20.107Z,15.40
2019-03-24T13:22:44.195Z,15.20
2019-03-24T13:25:17.306Z,14.90
2019-03-24T13:27:48.423Z,14.60
2019-03-24T13:30:20.193Z,14.40
2019-03-24T13:32:51.220Z,14.20
2019-03-24T13:35:23.298Z,13.90
2019-03-24T13:37:54.325Z,14.20
2019-03-24T13:40:25.572Z,14.00
2019-03-24T13:42:56.847Z,14.50
2019-03-24T13:45:29.215Z,14.70
2019-03-24T13:48:00.223Z,14.60
2019-03-24T13:50:31.980Z,14.20
2019-03-24T13:53:03.385Z,13.60
2019-03-24T13:55:40.481Z,13.70
2019-03-24T13:58:15.467Z,13.10
2019-03-24T14:00:48.390Z,13.30
2019-03-24T14:03:20.223Z,13.50
2019-03-24T14:05:57.607Z,13.30
2019-03-24T14:08:33.597Z,13.20
2019-03-24T14:11:05.980Z,12.90
2019-03-24T14:13:40.914Z,12.60
2019-03-24T14:16:15.310Z,12.10
2019-03-24T14:18:49.705Z,12.10
2019-03-24T14:21:22.704Z,12.00
2019-03-24T14:23:57.066Z,12.10
2019-03-24T14:26:33.752Z,12.10
2019-03-24T14:29:06.492Z,11.50
2019-03-24T14:31:42.318Z,11.50
2019-03-24T14:34:16.433Z,11.90
2019-03-24T14:36:54.767Z,11.90
2019-03-24T14:39:35.718Z,11.40
2019-03-24T14:42:10.249Z,11.40
2019-03-24T14:44:44.837Z,11.60
2019-03-24T14:47:22.678Z,11.40
2019-03-24T14:49:56.287Z,11.70
2019-03-24T14:52:32.180Z,11.70
2019-03-24T14:55:07.659Z,11.60
2019-03-24T14:57:45.022Z,11.50
2019-03-24T15:00:29.526Z,11.30
2019-03-24T15:03:04.165Z,11.00
2019-03-24T15:05:38.374Z,10.90
2019-03-24T15:08:13.339Z,10.90
2019-03-24T15:10:49.670Z,10.70
2019-03-24T15:13:26.376Z,10.70
2019-03-24T15:16:03.989Z,10.90
2019-03-24T15:18:39.517Z,11.00
2019-03-24T15:21:12.731Z,10.80
2019-03-24T15:23:50.099Z,10.70
2019-03-24T15:26:29.131Z,10.60
2019-03-24T15:29:04.096Z,10.50
2019-03-24T15:31:43.019Z,10.50
2019-03-24T15:34:16.546Z,10.70
2019-03-24T15:36:57.007Z,10.80
2019-03-24T15:39:32.666Z,10.90
2019-03-24T15:42:12.678Z,10.70
2019-03-24T15:44:51.693Z,10.90
2019-03-24T15:47:26.169Z,11.30
2019-03-24T15:49:58.809Z,11.30
2019-03-24T15:52:33.003Z,11.20
2019-03-24T15:55:08.853Z,11.10
2019-03-24T15:57:41.510Z,10.60
2019-03-24T16:00:16.419Z,10.50
2019-03-24T16:02:52.507Z,10.60
2019-03-24T16:05:24.688Z,10.30
2019-03-24T16:07:59.612Z,10.40
2019-03-24T16:10:35.399Z,10.30
2019-03-24T16:13:09.055Z,10.50
2019-03-24T16:15:53.258Z,10.80
2019-03-24T16:18:25.127Z,10.80
2019-03-24T16:21:02.338Z,10.70
2019-03-24T16:23:36.860Z,10.60
2019-03-24T16:26:09.977Z,10.70
2019-03-24T16:28:48.679Z,10.70
2019-03-24T16:31:22.577Z,10.40
2019-03-24T16:33:55.275Z,10.30
2019-03-24T16:36:27.707Z,10.00
2019-03-24T16:39:03.683Z,10.00
2019-03-24T16:41:39.575Z,9.80
2019-03-24T16:44:12.572Z,9.60
2019-03-24T16:46:47.002Z,9.30
2019-03-24T16:49:19.136Z,9.30
2019-03-24T16:51:54.077Z,9.10
2019-03-24T16:54:29.228Z,9.00
2019-03-24T16:57:04.630Z,9.10
2019-03-24T16:59:36.685Z,8.90
2019-03-24T17:02:09.506Z,8.80
2019-03-24T17:04:42.091Z,8.60
2019-03-24T17:07:16.971Z,8.70
2019-03-24T17:09:52.677Z,8.60
2019-03-24T17:12:26.941Z,8.50
2019-03-24T17:15:00.436Z,8.40
2019-03-24T17:17:33.925Z,8.20
2019-03-24T17:20:10.605Z,8.20
2019-03-24T17:22:44.152Z,8.10
2019-03-24T17:25:15.882Z,8.00
2019-03-24T17:27:48.125Z,7.70
2019-03-24T17:30:20.170Z,7.60
2019-03-24T17:32:55.706Z,7.40
2019-03-24T17:35:27.646Z,7.30
2019-03-24T17:37:59.213Z,7.20
2019-03-24T17:40:38.766Z,7.10
2019-03-24T17:43:13.623Z,6.90
2019-03-24T17:45:48.918Z,6.90
2019-03-24T17:48:20.916Z,6.70
2019-03-24T17:50:54.698Z,7.00
2019-03-24T17:53:27.628Z,6.60
2019-03-24T17:56:00.884Z,6.40
2019-03-24T17:58:33.195Z,6.20
2019-03-24T18:01:06.004Z,6.20
2019-03-24T18:03:42.090Z,6.10
2019-03-24T18:06:21.141Z,6.20
2019-03-24T18:08:54.549Z,5.90
2019-03-24T18:11:27.293Z,5.80
2019-03-24T18:14:04.115Z,5.60
2019-03-24T18:16:38.069Z,5.70
2019-03-24T18:19:13.192Z,5.80
2019-03-24T18:21:46.919Z,5.80
2019-03-24T18:24:24.632Z,5.50
2019-03-24T18:26:58.082Z,5.40
2019-03-24T18:29:32.711Z,5.20
2019-03-24T18:32:06.059Z,5.20
2019-03-24T18:34:40.835Z,5.00
2019-03-24T18:37:18.154Z,5.10
2019-03-24T18:39:54.851Z,5.00
2019-03-24T18:42:33.172Z,4.90
2019-03-24T18:45:12.360Z,4.90
2019-03-24T18:47:46.901Z,5.10
2019-03-24T18:50:22.810Z,5.00
2019-03-24T18:52:56.031Z,4.90
2019-03-24T18:55:32.035Z,4.80
2019-03-24T18:58:05.011Z,4.50
2019-03-24T19:00:38.300Z,4.40
2019-03-24T19:03:11.392Z,4.30
2019-03-24T19:05:44.366Z,4.20
2019-03-24T19:08:17.697Z,4.20
2019-03-24T19:10:50.897Z,4.10
2019-03-24T19:13:36.108Z,4.20
2019-03-24T19:16:14.504Z,4.00
2019-03-24T19:18:49.527Z,3.90
2019-03-24T19:21:23.056Z,3.80
2019-03-24T19:26:30.460Z,3.70
2019-03-24T19:29:04.339Z,3.80
2019-03-24T19:31:37.980Z,3.80
2019-03-24T19:34:14.131Z,3.90
2019-03-24T19:36:47.420Z,3.90
2019-03-24T19:39:21.346Z,3.90
2019-03-24T19:41:54.953Z,3.70
2019-03-24T19:44:30.502Z,3.90
2019-03-24T19:47:06.539Z,3.90
2019-03-24T19:49:41.975Z,3.70
2019-03-24T19:52:15.560Z,3.70
2019-03-24T19:54:49.752Z,3.80
2019-03-24T19:57:23.641Z,3.60
2019-03-24T19:59:56.272Z,3.60
2019-03-24T20:02:28.512Z,3.60
2019-03-24T20:05:04.369Z,3.50
2019-03-24T20:07:47.531Z,3.20
2019-03-24T20:10:13.249Z,3.00
2019-03-24T20:12:51.665Z,3.00
2019-03-24T20:15:27.940Z,2.80
2019-03-24T20:18:00.579Z,2.80
2019-03-24T20:20:36.545Z,2.70
2019-03-24T20:23:13.654Z,2.60
2019-03-24T20:25:48.178Z,2.70
2019-03-24T20:28:21.306Z,2.60
2019-03-24T20:31:00.006Z,2.70
2019-03-24T20:33:44.514Z,2.60
2019-03-24T20:36:18.173Z,2.50
2019-03-24T20:38:53.344Z,2.50
2019-03-24T20:41:27.691Z,2.40
2019-03-24T20:44:02.672Z,2.30
2019-03-24T20:46:38.371Z,2.10
2019-03-24T20:49:20.304Z,2.10
2019-03-24T20:51:52.231Z,2.10
2019-03-24T20:54:28.296Z,2.30
2019-03-24T20:57:04.390Z,2.30
2019-03-24T20:59:44.981Z,2.20
2019-03-24T21:02:18.040Z,2.20
2019-03-24T21:04:53.087Z,2.20
2019-03-24T21:07:34.655Z,2.30
2019-03-24T21:10:09.021Z,2.30
2019-03-24T21:12:47.398Z,2.30
2019-03-24T21:15:21.283Z,2.40
2019-03-24T21:17:58.026Z,2.30
2019-03-24T21:20:32.958Z,2.40
2019-03-24T21:23:12.813Z,2.50
2019-03-24T21:25:44.984Z,2.50
2019-03-24T21:28:22.196Z,2.60
2019-03-24T21:30:57.739Z,2.70
2019-03-24T21:33:32.226Z,2.90
2019-03-24T21:36:04.274Z,3.20
2019-03-24T21:38:37.600Z,2.90
2019-03-24T21:41:15.972Z,2.90
2019-03-24T21:43:50.768Z,2.90
2019-03-24T21:46:30.112Z,2.80
2019-03-24T21:49:05.071Z,2.70
2019-03-24T21:51:38.118Z,2.80
2019-03-24T21:54:12.267Z,2.70
2019-03-24T21:56:47.628Z,2.40
2019-03-24T21:59:22.556Z,2.20
2019-03-24T22:02:01.016Z,2.20
2019-03-24T22:04:35.329Z,2.20
2019-03-24T22:07:14.072Z,2.20
2019-03-24T22:09:48.457Z,2.30
2019-03-24T22:12:23.132Z,2.20
2019-03-24T22:14:57.617Z,2.20
2019-03-24T22:17:30.376Z,2.00
2019-03-24T22:20:05.845Z,2.20
2019-03-24T22:22:40.851Z,2.00
2019-03-24T22:25:13.687Z,2.00
2019-03-24T22:27:49.514Z,2.00
2019-03-24T22:30:25.320Z,1.90
2019-03-24T22:33:00.059Z,1.90
2019-03-24T22:38:29.243Z,1.80
2019-03-24T22:41:06.320Z,1.80
2019-03-24T22:43:42.573Z,1.90
2019-03-24T22:46:17.493Z,1.90
2019-03-24T22:48:54.457Z,1.90
2019-03-24T22:51:33.449Z,2.10
2019-03-24T22:54:08.149Z,2.00
2019-03-24T22:56:42.588Z,2.00
2019-03-24T22:59:16.039Z,2.00
2019-03-24T23:01:55.866Z,1.90
2019-03-24T23:04:31.790Z,1.80
2019-03-24T23:07:04.880Z,1.80
2019-03-24T23:09:41.795Z,1.80
2019-03-24T23:12:34.134Z,1.60
2019-03-24T23:14:56.573Z,1.80
2019-03-24T23:17:32.565Z,2.00
2019-03-24T23:20:09.035Z,2.10
2019-03-24T23:22:51.815Z,2.20
2019-03-24T23:25:24.119Z,2.20
2019-03-24T23:27:58.739Z,2.10
2019-03-24T23:30:32.981Z,2.10
2019-03-24T23:36:04.721Z,2.10
2019-03-24T23:38:43.523Z,2.00
2019-03-24T23:41:21.907Z,2.20
2019-03-24T23:43:58.651Z,2.30
2019-03-24T23:46:34.956Z,2.30
2019-03-24T23:49:08.161Z,2.40
2019-03-24T23:51:44.303Z,2.50
2019-03-24T23:54:28.027Z,2.60
2019-03-24T23:57:01.506Z,2.60
2019-03-24T23:59:33.808Z,2.60
